Soaring Guidance
Issued by NWS Reno, NV

Home | Current Version | Previous Version | Text Only | Print | Product List | Glossary On
Versions: 1 2 3 4 5 6 7 8 9 10 11 12 13
000
UXUS97 KREV 191350
SRGREV

SOARING FORECAST
NATIONAL WEATHER SERVICE - RENO NV
700 AM PDT WED JUN 19 2019

THIS SOARING FORECAST IS FOR THE EASTERN SIERRA AND WESTERN NEVADA
WITH SPECIFIC INDICES FOR THE GREATER RENO AREA.

THIS FORECAST IS PREPARED DAILY BY 700 AM AND IS NOT UPDATED.

FOR CURRENT FLIGHT CONDITIONS...FORECASTS...AND ADVISORIES...ACCESS
YOUR LOCAL BRIEFING OUTLET OR FLIGHT SERVICE STATION.

*******************************************************************
FORECASTED LOCAL INDICES FOR RENO:        TODAY     YESTERDAY
FORECASTED MAX TEMP AT RENO (DEG F).....     95          93
FORECASTED TRIGGER TEMPERATURE (DEG F)..     79          76
   EXCEEDED YESTERDAY BY 955 AM PDT
FORECASTED MAXIMUM ALTITUDE (FT MSL)....  13900       17000
FORECASTED SOARING INDEX (FPM)..........    717        1050
FORECASTED K-INDEX.........VALID 18Z....     16          22
FORECASTED K-INDEX.........VALID 00Z....     20          16
FORECASTED LIFTED INDEX....VALID 18Z....      4           4
FORECASTED LIFTED INDEX....VALID 00Z....      2           3

AFTERNOON WINDS ALOFT FORECAST
MSL (FT) WIND/TEMP
9000  3012/+17
10000 2912/+14
12000 2912/+08
14000 2914/+02
16000 2917/-03
18000 2925/-08
24000 3033/-20
30000 3051/-35
34000 3055/-46
39000 3160/-58

SLIDE MOUNTAIN DATA:
     DATE       TIME     TEMP  DEWPT   RH         WIND (MPH)
                        (F)   (F)           | DIR  SPEED GUST
2019-06-19    05:20      53    36     41    | 281    9   10
2019-06-19    05:00      53    36     40    | 282    9   10
2019-06-19    04:50      53    35     39    | 285    6    8
2019-06-19    04:30      53    37     42    | 282    7    9

SIERRA CREST 8700 FT DATA:
   DATE     TIME  TEMP  RH         WIND
                            DIR   SPEED   GUST
2019-06-19 0600   57   42   052             0
2019-06-19 0545   55   43   052             0
2019-06-19 0530   56   39   052             0
2019-06-19 0515   56   44   052             0

RENO TAF FORECAST:
KRNO 191120Z 1912/2012 VRB04KT P6SM SKC
     FM192000 31015G25KT P6SM SKC
     FM200400 32011KT P6SM SKC

CARSON CITY TAF FORECAST:
KCXP 191120Z 1912/2012 VRB03KT P6SM SKC
     FM192000 27013G23KT P6SM SKC
     FM200400 26006KT P6SM SKC

OUTLOOK FOR THE RENO-CARSON CITY-MINDEN AREA:
.THURSDAY...SUNNY. HIGHS 83 TO 88. WEST WINDS AROUND 10 MPH
INCREASING TO 15 TO 25 MPH WITH GUSTS UP TO 40 MPH IN THE
AFTERNOON.

SUNRISE AND SUNSET
JUNE 19 2019..........SUNRISE   532 AM PDT   SUNSET   829 PM PDT
JUNE 20 2019..........SUNRISE   532 AM PDT   SUNSET   830 PM PDT


USA.gov is the U.S. government's official web portal to all federal, state and local government web resources and services.